Time;durP1;ratioP1;P1;durP2;ratioP2;P2;SDS_P1;SDS_P2;PMS_P1;PMS_P2;Temp;Humidity;BMP_temperature;BMP_pressure;BME280_temperature;BME280_humidity;BME280_pressure;Samples;Min_cycle;Max_cycle;Signal;HPM_P1;HPM_P2
2021/08/21 00:00:56;;;;;;;2.60;2.40;;;12.30;91.90;;;;;;2048613;29;20179;-66
2021/08/21 00:01:56;;;;;;;5.47;2.53;;;12.30;91.80;;;;;;2049285;28;20195;-65
2021/08/21 00:02:57;;;;;;;5.73;2.33;;;12.30;91.80;;;;;;2049433;29;20526;-66
2021/08/21 00:03:58;;;;;;;2.63;2.20;;;12.30;91.80;;;;;;2049482;28;20183;-66
2021/08/21 00:04:59;;;;;;;3.07;2.10;;;12.20;91.80;;;;;;2049302;28;20172;-67
2021/08/21 00:06:00;;;;;;;4.37;2.10;;;12.20;91.90;;;;;;2048772;29;20176;-66
2021/08/21 00:07:00;;;;;;;3.30;2.53;;;12.20;91.90;;;;;;2048730;29;20195;-65
2021/08/21 00:08:02;;;;;;;2.97;2.10;;;12.20;91.90;;;;;;2049441;28;20203;-67
2021/08/21 00:09:04;;;;;;;3.05;2.47;;;12.20;91.90;;;;;;2049154;28;20191;-66
2021/08/21 00:10:08;;;;;;;2.72;2.30;;;12.20;91.90;;;;;;2049294;28;20188;-66
2021/08/21 00:11:08;;;;;;;3.60;1.92;;;12.20;92.00;;;;;;2048683;29;20210;-66
2021/08/21 00:12:09;;;;;;;3.20;2.73;;;12.20;91.90;;;;;;2048983;28;20235;-67
2021/08/21 00:13:10;;;;;;;3.40;2.63;;;12.20;92.00;;;;;;2050000;28;20551;-65
2021/08/21 00:14:10;;;;;;;3.17;2.57;;;12.20;92.00;;;;;;2050896;29;20176;-67
2021/08/21 00:15:17;;;;;;;3.00;2.43;;;12.20;92.00;;;;;;2050959;28;20576;-68
2021/08/21 00:16:18;;;;;;;6.93;2.38;;;12.20;91.90;;;;;;2050424;29;20164;-67
2021/08/21 00:17:19;;;;;;;2.83;1.80;;;12.20;91.90;;;;;;2050286;29;20180;-66
2021/08/21 00:18:20;;;;;;;2.78;2.50;;;12.10;91.90;;;;;;2050920;28;20184;-66
2021/08/21 00:19:21;;;;;;;3.58;2.13;;;12.10;91.90;;;;;;2049933;28;20257;-68
2021/08/21 00:20:22;;;;;;;2.30;2.10;;;12.10;91.90;;;;;;2050322;29;20262;-66
2021/08/21 00:21:24;;;;;;;3.00;2.07;;;12.10;91.90;;;;;;2050890;28;20251;-68
2021/08/21 00:22:25;;;;;;;2.78;2.03;;;12.10;91.90;;;;;;2050928;28;20431;-66
2021/08/21 00:23:25;;;;;;;2.20;1.70;;;12.10;91.90;;;;;;2050853;29;20576;-68
2021/08/21 00:24:26;;;;;;;2.57;2.10;;;12.10;91.90;;;;;;2050958;28;20180;-66
2021/08/21 00:25:27;;;;;;;3.90;2.70;;;12.10;91.90;;;;;;2050843;28;20180;-67
2021/08/21 00:26:27;;;;;;;5.47;2.47;;;12.00;91.90;;;;;;2050809;28;20184;-68
2021/08/21 00:27:28;;;;;;;3.90;2.80;;;12.00;92.00;;;;;;2050900;28;20207;-67
2021/08/21 00:28:29;;;;;;;4.43;2.63;;;12.00;92.10;;;;;;2051152;28;20184;-66
2021/08/21 00:29:31;;;;;;;3.13;2.20;;;12.00;91.90;;;;;;2050753;28;20635;-68
2021/08/21 00:30:31;;;;;;;2.13;1.65;;;12.00;91.90;;;;;;2050852;28;20188;-68
2021/08/21 00:31:32;;;;;;;5.10;2.73;;;12.00;92.00;;;;;;2050693;28;20180;-67
2021/08/21 00:32:34;;;;;;;2.93;2.13;;;12.00;92.00;;;;;;2050776;28;20244;-67
2021/08/21 00:33:34;;;;;;;3.97;2.35;;;12.00;92.00;;;;;;2050667;28;20188;-68
2021/08/21 00:34:35;;;;;;;3.87;3.40;;;12.00;92.30;;;;;;2050762;28;20207;-66
2021/08/21 00:35:36;;;;;;;4.10;2.23;;;12.00;92.80;;;;;;2050775;28;20550;-67
2021/08/21 00:36:36;;;;;;;2.97;2.30;;;12.00;92.20;;;;;;2050110;29;20746;-67
2021/08/21 00:37:37;;;;;;;3.47;2.43;;;12.00;92.20;;;;;;2050220;29;20290;-66
2021/08/21 00:38:38;;;;;;;2.73;2.10;;;12.00;92.10;;;;;;2050727;28;20176;-67
2021/08/21 00:39:39;;;;;;;3.10;2.23;;;12.00;92.10;;;;;;2050621;28;20196;-66
2021/08/21 00:40:40;;;;;;;3.53;2.42;;;12.00;92.00;;;;;;2049991;29;20601;-67
2021/08/21 00:41:42;;;;;;;3.57;2.60;;;11.90;92.10;;;;;;2050160;29;20180;-66
2021/08/21 00:42:43;;;;;;;2.42;2.22;;;11.90;92.20;;;;;;2050800;28;20183;-67
2021/08/21 00:43:44;;;;;;;6.32;2.95;;;11.90;92.20;;;;;;2050279;29;20242;-68
2021/08/21 00:44:45;;;;;;;2.70;2.50;;;11.80;92.30;;;;;;2050117;29;20199;-66
2021/08/21 00:45:46;;;;;;;3.70;2.33;;;11.80;92.30;;;;;;2050941;28;20239;-66
2021/08/21 00:47:06;;;;;;;4.35;2.70;;;11.80;92.40;;;;;;2050627;29;20318;-67
2021/08/21 00:48:06;;;;;;;2.53;1.67;;;11.80;92.50;;;;;;2050746;28;20180;-68
2021/08/21 00:49:07;;;;;;;2.27;1.93;;;11.80;92.60;;;;;;2050371;28;20187;-67
2021/08/21 00:50:08;;;;;;;3.07;2.37;;;11.80;92.60;;;;;;2050879;28;20238;-67
2021/08/21 00:51:09;;;;;;;5.30;2.40;;;11.80;92.60;;;;;;2050696;28;20315;-66
2021/08/21 00:52:17;;;;;;;3.47;2.30;;;11.80;92.70;;;;;;2050711;28;20559;-68
2021/08/21 00:53:18;;;;;;;5.30;2.70;;;11.80;92.70;;;;;;2050063;29;20431;-66
2021/08/21 00:54:19;;;;;;;3.05;2.47;;;11.80;92.60;;;;;;2050023;29;20286;-66
2021/08/21 00:55:19;;;;;;;3.30;2.20;;;11.70;92.50;;;;;;2050578;28;20527;-67
2021/08/21 00:56:20;;;;;;;2.60;2.13;;;11.70;92.50;;;;;;2050715;28;20187;-67
2021/08/21 00:57:21;;;;;;;2.87;2.40;;;11.70;92.60;;;;;;2050597;28;20183;-67
2021/08/21 00:58:23;;;;;;;4.25;2.45;;;11.70;92.50;;;;;;2050184;29;20229;-66
2021/08/21 00:59:24;;;;;;;4.80;2.75;;;11.70;92.50;;;;;;2041977;29;20271;-67
2021/08/21 01:00:25;;;;;;;3.97;2.40;;;11.70;92.60;;;;;;2042150;29;20191;-67
2021/08/21 01:01:26;;;;;;;3.17;2.30;;;11.70;92.50;;;;;;2049912;28;20208;-66
2021/08/21 01:02:29;;;;;;;3.23;2.33;;;11.70;92.40;;;;;;2055564;28;20176;-68
2021/08/21 01:03:29;;;;;;;3.58;2.53;;;11.70;92.40;;;;;;2058467;28;20183;-67
2021/08/21 01:04:31;;;;;;;3.00;2.00;;;11.70;92.40;;;;;;2058667;28;20210;-67
2021/08/21 01:05:32;;;;;;;2.85;2.28;;;11.70;92.40;;;;;;2058774;28;20182;-66
2021/08/21 01:06:33;;;;;;;2.63;2.27;;;11.70;92.30;;;;;;2058636;28;20557;-67
2021/08/21 01:07:36;;;;;;;3.70;2.20;;;11.70;92.40;;;;;;2057869;28;20670;-66
2021/08/21 01:08:37;;;;;;;5.40;2.65;;;11.60;92.30;;;;;;2050412;28;20714;-66
2021/08/21 01:09:42;;;;;;;2.70;2.27;;;11.60;92.30;;;;;;2057643;28;20199;-65
2021/08/21 01:10:43;;;;;;;4.55;2.03;;;11.60;92.30;;;;;;2058094;28;20186;-65
2021/08/21 01:11:46;;;;;;;4.07;2.33;;;11.60;92.30;;;;;;2050082;28;20179;-66
2021/08/21 01:12:49;;;;;;;2.70;2.40;;;11.60;92.40;;;;;;2050119;28;20171;-65
2021/08/21 01:13:50;;;;;;;2.58;2.13;;;11.60;92.40;;;;;;2057902;28;20574;-65
2021/08/21 01:14:51;;;;;;;3.37;2.53;;;11.60;93.00;;;;;;2057880;28;20211;-68
2021/08/21 01:15:52;;;;;;;5.53;2.60;;;11.50;92.50;;;;;;2049911;28;20222;-65
2021/08/21 01:16:54;;;;;;;3.57;1.97;;;11.60;92.50;;;;;;2057931;28;20233;-66
2021/08/21 01:17:55;;;;;;;3.97;2.55;;;11.50;92.50;;;;;;2057754;28;20191;-65
2021/08/21 01:18:58;;;;;;;3.92;2.60;;;11.60;92.50;;;;;;2057643;28;20277;-65
2021/08/21 01:19:58;;;;;;;4.43;2.92;;;11.60;92.40;;;;;;2058459;28;20544;-66
2021/08/21 01:21:01;;;;;;;4.90;2.57;;;11.60;92.30;;;;;;2057746;28;20179;-67
2021/08/21 01:22:03;;;;;;;3.65;2.67;;;11.60;92.40;;;;;;2050037;28;20228;-67
2021/08/21 01:23:05;;;;;;;2.97;2.17;;;11.60;92.40;;;;;;2057871;28;20175;-66
2021/08/21 01:24:06;;;;;;;2.50;2.30;;;11.50;92.40;;;;;;2057813;28;20179;-66
2021/08/21 01:25:17;;;;;;;3.63;2.70;;;11.50;92.40;;;;;;2057065;28;20236;-65
2021/08/21 01:26:17;;;;;;;3.92;2.35;;;11.50;92.40;;;;;;2058394;28;20802;-67
2021/08/21 01:27:25;;;;;;;3.43;2.53;;;11.50;92.50;;;;;;2058402;28;20191;-66
2021/08/21 01:28:25;;;;;;;2.55;2.35;;;11.50;92.40;;;;;;2058309;28;20171;-66
2021/08/21 01:29:26;;;;;;;4.20;2.30;;;11.50;92.40;;;;;;2058105;28;20205;-66
2021/08/21 01:30:27;;;;;;;5.93;2.93;;;11.50;92.50;;;;;;2058220;28;20175;-66
2021/08/21 01:31:27;;;;;;;2.57;2.17;;;11.50;92.50;;;;;;2058353;28;20210;-65
2021/08/21 01:32:28;;;;;;;2.10;1.90;;;11.50;92.50;;;;;;2058157;28;20206;-66
2021/08/21 01:33:29;;;;;;;3.13;2.77;;;11.50;92.50;;;;;;2058401;28;20214;-67
2021/08/21 01:34:30;;;;;;;4.40;2.80;;;11.50;92.40;;;;;;2057453;28;20469;-66
2021/08/21 01:35:31;;;;;;;4.83;2.27;;;11.50;92.40;;;;;;2049621;29;20238;-66
2021/08/21 01:36:46;;;;;;;3.40;3.03;;;11.50;92.50;;;;;;2057575;28;20217;-67
2021/08/21 01:37:47;;;;;;;3.15;2.65;;;11.50;92.50;;;;;;2058217;28;20182;-66
2021/08/21 01:38:56;;;;;;;2.50;1.90;;;11.50;92.40;;;;;;2058099;28;20203;-66
2021/08/21 01:39:58;;;;;;;4.15;2.80;;;11.50;92.50;;;;;;2058138;28;20171;-66
2021/08/21 01:40:58;;;;;;;5.07;2.55;;;11.40;92.50;;;;;;2058036;28;20586;-66
2021/08/21 01:41:59;;;;;;;3.03;2.23;;;11.50;92.50;;;;;;2058362;28;20182;-66
2021/08/21 01:43:00;;;;;;;2.90;2.27;;;11.50;92.60;;;;;;2057720;28;20642;-65
2021/08/21 01:44:01;;;;;;;2.67;2.00;;;11.50;92.80;;;;;;2057794;28;20423;-65
2021/08/21 01:45:02;;;;;;;3.00;2.57;;;11.50;92.80;;;;;;2058210;28;20302;-67
2021/08/21 01:46:03;;;;;;;4.82;2.78;;;11.40;92.80;;;;;;2058319;28;20186;-65
2021/08/21 01:47:03;;;;;;;3.37;2.47;;;11.50;92.80;;;;;;2058021;28;20175;-66
2021/08/21 01:48:06;;;;;;;6.80;2.83;;;11.50;92.70;;;;;;2058379;28;20187;-65
2021/08/21 01:49:11;;;;;;;3.22;2.63;;;11.50;92.70;;;;;;2057943;28;20217;-65
2021/08/21 01:50:19;;;;;;;3.55;2.22;;;11.50;92.70;;;;;;2058348;28;20169;-67
2021/08/21 01:51:20;;;;;;;7.45;2.63;;;11.50;92.80;;;;;;2058375;28;20321;-66
2021/08/21 01:52:21;;;;;;;2.30;2.10;;;11.50;92.80;;;;;;2058203;28;20179;-66
2021/08/21 01:53:22;;;;;;;4.33;2.97;;;11.50;92.70;;;;;;2057563;28;20513;-65
2021/08/21 01:54:25;;;;;;;3.50;2.73;;;11.50;92.70;;;;;;2057901;28;20200;-66
2021/08/21 01:55:29;;;;;;;3.67;2.53;;;11.40;92.60;;;;;;2057492;28;20186;-67
2021/08/21 01:56:30;;;;;;;1.90;1.80;;;11.50;92.80;;;;;;2050131;28;20206;-68
2021/08/21 01:57:30;;;;;;;1.80;1.70;;;11.40;92.80;;;;;;2057478;28;20179;-66
2021/08/21 01:58:31;;;;;;;1.93;1.83;;;11.50;92.70;;;;;;2057743;28;20187;-66
2021/08/21 01:59:42;;;;;;;4.43;2.73;;;11.50;92.70;;;;;;2049230;28;20204;-66
2021/08/21 02:00:43;;;;;;;2.83;2.10;;;11.40;92.80;;;;;;2057695;28;20163;-67
2021/08/21 02:01:44;;;;;;;3.07;2.07;;;11.40;92.80;;;;;;2058138;28;20237;-64
2021/08/21 02:02:44;;;;;;;3.57;2.33;;;11.50;92.70;;;;;;2052695;28;20186;-67
2021/08/21 02:03:46;;;;;;;3.40;2.27;;;11.50;92.70;;;;;;2050020;28;20607;-65
2021/08/21 02:04:47;;;;;;;2.65;1.90;;;11.40;92.60;;;;;;2049315;29;20606;-65
2021/08/21 02:05:48;;;;;;;3.27;2.23;;;11.40;92.50;;;;;;2049586;29;20271;-64
2021/08/21 02:06:51;;;;;;;4.85;2.85;;;11.40;92.60;;;;;;2050113;28;20262;-65
2021/08/21 02:07:51;;;;;;;4.18;2.20;;;11.40;92.60;;;;;;2050121;28;20218;-65
2021/08/21 02:08:52;;;;;;;4.17;2.60;;;11.40;92.60;;;;;;2049315;28;20191;-66
2021/08/21 02:09:53;;;;;;;2.13;1.73;;;11.40;92.60;;;;;;2049567;29;20180;-66
2021/08/21 02:10:53;;;;;;;3.63;2.57;;;11.40;92.60;;;;;;2050075;28;20697;-64
2021/08/21 02:11:57;;;;;;;3.23;2.23;;;11.40;92.60;;;;;;2050097;28;20195;-65
2021/08/21 02:12:58;;;;;;;3.83;2.05;;;11.40;92.50;;;;;;2041464;29;20181;-66
2021/08/21 02:13:59;;;;;;;2.80;2.40;;;11.40;92.60;;;;;;2041645;29;20212;-66
2021/08/21 02:15:04;;;;;;;3.83;2.27;;;11.40;92.50;;;;;;2049985;28;20219;-65
2021/08/21 02:16:05;;;;;;;2.13;1.92;;;11.40;92.50;;;;;;2049687;29;20179;-68
2021/08/21 02:17:06;;;;;;;2.77;2.03;;;11.40;92.70;;;;;;2049328;29;20251;-67
2021/08/21 02:18:07;;;;;;;4.07;2.45;;;11.40;92.70;;;;;;2050058;28;20176;-66
2021/08/21 02:19:08;;;;;;;7.87;2.67;;;11.40;92.70;;;;;;2049864;28;20553;-66
2021/08/21 02:20:14;;;;;;;4.07;2.43;;;11.40;92.80;;;;;;2050199;28;20180;-66
2021/08/21 02:21:16;;;;;;;2.95;2.40;;;11.40;92.80;;;;;;2050128;28;20216;-66
2021/08/21 02:22:17;;;;;;;4.25;2.33;;;11.40;92.80;;;;;;2049366;28;20202;-67
2021/08/21 02:23:18;;;;;;;3.00;2.53;;;11.40;92.80;;;;;;2049405;29;20271;-66
2021/08/21 02:24:24;;;;;;;6.78;2.28;;;11.40;92.80;;;;;;2049990;28;20215;-67
2021/08/21 02:25:25;;;;;;;3.53;2.60;;;11.40;92.70;;;;;;2049420;29;20252;-67
2021/08/21 02:26:27;;;;;;;2.40;2.00;;;11.40;92.80;;;;;;2049440;29;20179;-67
2021/08/21 02:27:36;;;;;;;3.83;2.58;;;11.40;92.80;;;;;;2049821;29;20179;-65
2021/08/21 02:28:36;;;;;;;3.25;2.47;;;11.40;92.80;;;;;;2049996;28;20164;-67
2021/08/21 02:29:37;;;;;;;3.30;2.43;;;11.40;92.80;;;;;;2049702;28;20232;-67
2021/08/21 02:30:40;;;;;;;3.37;2.50;;;11.40;92.80;;;;;;2049940;28;20180;-66
2021/08/21 02:31:41;;;;;;;5.00;2.35;;;11.40;92.80;;;;;;2049338;29;20187;-67
2021/08/21 02:32:42;;;;;;;4.03;2.33;;;11.40;92.70;;;;;;2041516;29;20180;-66
2021/08/21 02:33:43;;;;;;;4.70;2.97;;;11.40;92.60;;;;;;2049360;29;20183;-66
2021/08/21 02:34:43;;;;;;;3.23;2.53;;;11.40;92.70;;;;;;2050079;28;20581;-67
2021/08/21 02:35:44;;;;;;;3.40;2.37;;;11.40;92.80;;;;;;2049969;28;20187;-66
2021/08/21 02:36:45;;;;;;;5.77;2.60;;;11.40;92.80;;;;;;2049286;29;20199;-66
2021/08/21 02:37:46;;;;;;;2.50;2.30;;;11.40;92.80;;;;;;2049373;29;20176;-67
2021/08/21 02:38:46;;;;;;;3.13;2.20;;;11.40;92.70;;;;;;2049444;29;20577;-67
2021/08/21 02:39:47;;;;;;;4.47;2.80;;;11.40;92.70;;;;;;2049098;28;20639;-66
2021/08/21 02:40:49;;;;;;;2.43;2.10;;;11.40;92.70;;;;;;2049830;28;20172;-67
2021/08/21 02:41:50;;;;;;;2.30;2.10;;;11.40;92.70;;;;;;2049949;28;20658;-68
2021/08/21 02:42:50;;;;;;;5.68;2.85;;;11.40;92.70;;;;;;2049661;28;20677;-66
2021/08/21 02:43:51;;;;;;;2.67;2.10;;;11.40;92.70;;;;;;2049440;29;20176;-66
2021/08/21 02:44:52;;;;;;;3.13;2.33;;;11.40;92.60;;;;;;2049339;29;20176;-67
2021/08/21 02:45:53;;;;;;;3.87;2.37;;;11.40;92.60;;;;;;2049918;28;20195;-67
2021/08/21 02:46:53;;;;;;;4.87;2.47;;;11.40;92.50;;;;;;2049885;28;20194;-66
2021/08/21 02:47:54;;;;;;;4.53;2.53;;;11.40;92.50;;;;;;2049908;28;20190;-66
2021/08/21 02:48:55;;;;;;;2.77;2.20;;;11.40;92.50;;;;;;2049476;28;20650;-65
2021/08/21 02:49:55;;;;;;;4.93;2.00;;;11.50;92.40;;;;;;2049805;28;20203;-66
2021/08/21 02:50:56;;;;;;;3.27;2.43;;;11.50;92.30;;;;;;2049727;28;20214;-67
2021/08/21 02:51:57;;;;;;;4.53;2.93;;;11.50;92.40;;;;;;2049931;28;20207;-67
2021/08/21 02:52:57;;;;;;;3.13;2.37;;;11.40;92.40;;;;;;2049671;28;20179;-66
2021/08/21 02:53:58;;;;;;;3.30;2.30;;;11.40;92.40;;;;;;2049848;28;20187;-66
2021/08/21 02:54:59;;;;;;;2.47;2.03;;;11.40;92.50;;;;;;2049730;28;20214;-66
2021/08/21 02:56:03;;;;;;;2.67;2.00;;;11.40;92.50;;;;;;2049758;28;20326;-66
2021/08/21 02:57:03;;;;;;;3.20;2.25;;;11.40;92.50;;;;;;2049813;28;20230;-66
2021/08/21 02:58:04;;;;;;;3.83;2.23;;;11.30;92.40;;;;;;2049182;28;20350;-67
2021/08/21 02:59:05;;;;;;;2.27;1.90;;;11.30;92.40;;;;;;2048824;28;20270;-67
2021/08/21 03:00:06;;;;;;;7.93;2.20;;;11.40;92.40;;;;;;2049069;28;20232;-65
2021/08/21 03:01:07;;;;;;;8.32;2.42;;;11.30;92.30;;;;;;2041176;29;20656;-66
2021/08/21 03:02:08;;;;;;;2.63;2.43;;;11.30;92.30;;;;;;2049055;29;20267;-68
2021/08/21 03:03:09;;;;;;;2.30;1.87;;;11.30;92.30;;;;;;2049644;28;20208;-67
2021/08/21 03:04:10;;;;;;;3.75;2.85;;;11.30;92.30;;;;;;2049050;29;20190;-67
2021/08/21 03:05:11;;;;;;;2.27;2.07;;;11.30;92.30;;;;;;2049087;29;20180;-65
2021/08/21 03:06:12;;;;;;;3.47;2.00;;;11.30;92.50;;;;;;2049237;28;20709;-65
2021/08/21 03:07:12;;;;;;;2.87;2.23;;;11.20;92.60;;;;;;2049359;28;20179;-65
2021/08/21 03:08:13;;;;;;;2.83;2.40;;;11.20;92.60;;;;;;2055388;28;20274;-66
2021/08/21 03:09:14;;;;;;;2.20;2.00;;;11.30;92.50;;;;;;2056739;28;20278;-65
2021/08/21 03:10:15;;;;;;;3.83;2.57;;;11.20;92.50;;;;;;2057076;28;20752;-66
2021/08/21 03:11:15;;;;;;;2.20;1.97;;;11.30;92.70;;;;;;2057645;28;20171;-66
2021/08/21 03:12:16;;;;;;;3.23;1.80;;;11.30;92.70;;;;;;2056938;28;20219;-65
2021/08/21 03:13:17;;;;;;;7.80;2.60;;;11.30;92.60;;;;;;2056965;28;20206;-65
2021/08/21 03:14:17;;;;;;;3.03;2.50;;;11.30;92.50;;;;;;2057014;28;20263;-66
2021/08/21 03:15:19;;;;;;;3.77;2.17;;;11.30;92.50;;;;;;2056960;28;20221;-65
2021/08/21 03:16:19;;;;;;;2.60;2.40;;;11.30;92.40;;;;;;2057694;28;20270;-66
2021/08/21 03:17:20;;;;;;;2.77;2.27;;;11.30;92.90;;;;;;2057607;28;20182;-65
2021/08/21 03:18:21;;;;;;;3.23;2.57;;;11.30;92.40;;;;;;2057678;28;20175;-67
2021/08/21 03:19:21;;;;;;;3.13;2.20;;;11.30;92.50;;;;;;2057356;28;20234;-65
2021/08/21 03:20:23;;;;;;;4.17;2.20;;;11.30;92.50;;;;;;2056942;28;20175;-66
2021/08/21 03:21:24;;;;;;;3.83;2.90;;;11.30;92.50;;;;;;2057063;28;20234;-64
2021/08/21 03:22:25;;;;;;;4.43;2.70;;;11.30;92.60;;;;;;2057619;28;20179;-67
2021/08/21 03:23:25;;;;;;;3.50;2.80;;;11.30;92.70;;;;;;2057457;28;20240;-65
2021/08/21 03:24:26;;;;;;;2.20;1.77;;;11.30;92.70;;;;;;2057676;28;20183;-65
2021/08/21 03:25:27;;;;;;;2.33;2.07;;;11.20;92.70;;;;;;2057627;28;20664;-66
2021/08/21 03:26:27;;;;;;;3.37;2.60;;;11.30;92.90;;;;;;2057430;28;20179;-65
2021/08/21 03:27:28;;;;;;;3.70;2.13;;;11.30;92.90;;;;;;2057592;28;20187;-65
2021/08/21 03:28:29;;;;;;;2.80;2.30;;;11.30;93.00;;;;;;2056780;28;20207;-67
2021/08/21 03:29:29;;;;;;;3.77;2.57;;;11.30;93.00;;;;;;2056395;28;20235;-66
2021/08/21 03:30:30;;;;;;;2.13;1.90;;;11.20;93.00;;;;;;2057496;28;20189;-64
2021/08/21 03:31:31;;;;;;;2.57;2.37;;;11.30;93.00;;;;;;2057612;28;20190;-65
2021/08/21 03:32:32;;;;;;;2.70;2.20;;;11.30;93.00;;;;;;2057678;28;20194;-66
2021/08/21 03:33:32;;;;;;;5.03;2.50;;;11.20;92.90;;;;;;2057559;28;20553;-66
2021/08/21 03:34:34;;;;;;;5.10;3.00;;;11.30;93.50;;;;;;2056720;28;20211;-66
2021/08/21 03:35:35;;;;;;;3.08;2.72;;;11.20;92.90;;;;;;2056791;28;20187;-65
2021/08/21 03:36:36;;;;;;;3.00;2.45;;;11.20;92.90;;;;;;2057350;28;20182;-64
2021/08/21 03:37:37;;;;;;;3.80;2.60;;;11.20;92.80;;;;;;2056877;28;20240;-65
2021/08/21 03:38:38;;;;;;;2.92;2.17;;;11.20;93.30;;;;;;2048780;28;20179;-66
2021/08/21 03:39:39;;;;;;;2.47;2.00;;;11.20;92.80;;;;;;2056556;28;20191;-65
2021/08/21 03:40:40;;;;;;;4.95;2.55;;;11.20;92.70;;;;;;2057371;28;20242;-66
2021/08/21 03:41:40;;;;;;;2.87;2.10;;;11.20;92.60;;;;;;2057511;28;20197;-65
2021/08/21 03:42:41;;;;;;;2.80;2.57;;;11.20;92.50;;;;;;2057467;28;20548;-67
2021/08/21 03:43:42;;;;;;;3.07;2.50;;;11.20;92.50;;;;;;2057435;28;20206;-65
2021/08/21 03:44:43;;;;;;;3.17;2.30;;;11.20;92.40;;;;;;2057407;28;20191;-66
2021/08/21 03:45:44;;;;;;;2.13;1.87;;;11.20;92.40;;;;;;2057387;28;20185;-67
2021/08/21 03:46:44;;;;;;;2.93;2.13;;;11.20;92.30;;;;;;2057448;28;20419;-66
2021/08/21 03:47:47;;;;;;;4.00;2.57;;;11.20;92.20;;;;;;2056941;28;20183;-65
2021/08/21 03:48:47;;;;;;;3.85;2.58;;;11.20;92.30;;;;;;2057200;28;20232;-69
2021/08/21 03:49:48;;;;;;;2.43;2.17;;;11.20;92.50;;;;;;2056573;28;20677;-66
2021/08/21 03:50:49;;;;;;;3.53;2.47;;;11.10;92.60;;;;;;2056677;28;20180;-65
2021/08/21 03:51:49;;;;;;;5.33;2.23;;;11.10;92.60;;;;;;2057591;28;20175;-64
2021/08/21 03:52:50;;;;;;;3.50;2.30;;;11.10;92.70;;;;;;2056921;28;20185;-65
2021/08/21 03:53:51;;;;;;;4.20;2.70;;;11.10;93.00;;;;;;2056783;28;20230;-65
2021/08/21 03:54:52;;;;;;;2.37;2.03;;;11.10;93.20;;;;;;2056605;28;20211;-66
2021/08/21 03:55:52;;;;;;;6.33;2.87;;;11.10;93.30;;;;;;2056793;28;20211;-66
2021/08/21 03:56:53;;;;;;;3.10;2.57;;;11.10;93.40;;;;;;2057484;28;20205;-66
2021/08/21 03:57:54;;;;;;;3.60;2.60;;;11.10;93.50;;;;;;2056732;28;20178;-67
2021/08/21 03:58:54;;;;;;;2.63;2.07;;;11.10;93.30;;;;;;2056382;28;20185;-67
2021/08/21 03:59:55;;;;;;;2.53;1.80;;;11.10;93.20;;;;;;2057396;28;20230;-64
2021/08/21 04:00:56;;;;;;;2.20;2.00;;;11.10;93.00;;;;;;2056699;28;20175;-65
2021/08/21 04:01:56;;;;;;;2.57;2.00;;;11.10;93.00;;;;;;2056584;28;20315;-67
2021/08/21 04:02:57;;;;;;;5.33;2.50;;;11.10;93.00;;;;;;2057392;28;20208;-65
2021/08/21 04:03:58;;;;;;;1.93;1.83;;;11.10;92.90;;;;;;2057388;28;20658;-65
2021/08/21 04:04:59;;;;;;;3.73;2.30;;;11.20;93.00;;;;;;2057296;28;20294;-66
2021/08/21 04:05:59;;;;;;;6.57;2.83;;;11.10;92.90;;;;;;2057441;28;20422;-65
2021/08/21 04:07:00;;;;;;;5.53;2.20;;;11.10;93.00;;;;;;2057401;28;20183;-67
2021/08/21 04:08:01;;;;;;;3.23;2.80;;;11.10;92.90;;;;;;2057434;28;20561;-66
2021/08/21 04:09:01;;;;;;;5.03;2.77;;;11.20;93.00;;;;;;2057070;28;20214;-65
2021/08/21 04:10:04;;;;;;;3.60;2.20;;;11.20;93.00;;;;;;2056642;28;20621;-66
2021/08/21 04:11:04;;;;;;;2.67;2.15;;;11.10;93.00;;;;;;2056802;28;20213;-67
2021/08/21 04:12:05;;;;;;;4.87;2.63;;;11.20;93.10;;;;;;2057234;28;20182;-66
2021/08/21 04:13:06;;;;;;;5.00;3.50;;;11.10;93.20;;;;;;2057478;28;20191;-64
2021/08/21 04:14:07;;;;;;;2.83;2.07;;;11.10;93.10;;;;;;2057298;28;20649;-66
2021/08/21 04:15:08;;;;;;;3.57;2.50;;;11.10;93.20;;;;;;2056532;28;20643;-66
2021/08/21 04:16:09;;;;;;;3.28;2.78;;;11.10;93.20;;;;;;2056803;28;20190;-66
2021/08/21 04:17:09;;;;;;;3.30;3.00;;;11.10;93.20;;;;;;2056768;28;20190;-66
2021/08/21 04:18:10;;;;;;;3.17;2.87;;;11.10;93.20;;;;;;2056703;28;20209;-64
2021/08/21 04:19:11;;;;;;;4.13;2.83;;;11.20;93.10;;;;;;2057056;28;20190;-66
2021/08/21 04:20:12;;;;;;;4.10;3.17;;;11.20;93.20;;;;;;2057316;28;20191;-65
2021/08/21 04:21:13;;;;;;;3.20;2.50;;;11.10;93.20;;;;;;2057327;28;20555;-66
2021/08/21 04:22:13;;;;;;;4.90;2.83;;;11.20;93.20;;;;;;2057300;28;20179;-67
2021/08/21 04:23:14;;;;;;;2.50;2.30;;;11.20;93.10;;;;;;2057329;28;20201;-66
2021/08/21 04:24:15;;;;;;;4.10;2.63;;;11.20;93.10;;;;;;2057215;28;20218;-66
2021/08/21 04:25:16;;;;;;;3.53;2.37;;;11.20;93.00;;;;;;2057289;28;20249;-67
2021/08/21 04:26:16;;;;;;;3.27;2.87;;;11.20;93.00;;;;;;2057402;28;20410;-66
2021/08/21 04:27:17;;;;;;;2.67;2.40;;;11.20;93.20;;;;;;2057358;28;20281;-67
2021/08/21 04:28:18;;;;;;;3.17;2.63;;;11.20;93.20;;;;;;2057063;28;20269;-67
2021/08/21 04:29:18;;;;;;;3.30;2.30;;;11.20;93.20;;;;;;2056499;28;20258;-66
2021/08/21 04:30:19;;;;;;;4.37;3.00;;;11.10;93.10;;;;;;2056552;28;20194;-66
2021/08/21 04:31:20;;;;;;;3.40;2.47;;;11.10;93.20;;;;;;2056580;28;20190;-67
2021/08/21 04:32:20;;;;;;;3.40;2.47;;;11.10;93.20;;;;;;2056600;28;20305;-64
2021/08/21 04:33:22;;;;;;;7.13;2.63;;;11.10;93.20;;;;;;2057062;28;20183;-69
2021/08/21 04:34:22;;;;;;;2.85;2.55;;;11.10;93.10;;;;;;2057064;28;20261;-64
2021/08/21 04:35:23;;;;;;;3.00;2.43;;;11.10;93.30;;;;;;2057260;28;20221;-67
2021/08/21 04:36:24;;;;;;;3.13;2.20;;;11.10;93.40;;;;;;2056550;28;20191;-64
2021/08/21 04:37:25;;;;;;;3.65;2.55;;;11.10;93.30;;;;;;2048590;29;20191;-64
2021/08/21 04:38:25;;;;;;;2.50;2.10;;;11.10;93.30;;;;;;2056732;28;20214;-66
2021/08/21 04:39:26;;;;;;;2.77;2.17;;;11.10;93.30;;;;;;2056829;28;20270;-65
2021/08/21 04:40:28;;;;;;;3.30;2.17;;;11.10;93.20;;;;;;2057278;28;20573;-65
2021/08/21 04:41:29;;;;;;;2.20;2.00;;;11.10;93.20;;;;;;2056601;28;20179;-63
2021/08/21 04:42:29;;;;;;;2.70;2.50;;;11.10;93.20;;;;;;2056623;28;20222;-66
2021/08/21 04:43:30;;;;;;;3.20;2.20;;;11.10;93.10;;;;;;2057006;28;20206;-65
2021/08/21 04:44:31;;;;;;;4.77;2.23;;;11.10;93.10;;;;;;2057050;28;20183;-65
2021/08/21 04:45:31;;;;;;;2.43;2.23;;;11.10;93.10;;;;;;2057054;28;20316;-66
2021/08/21 04:46:35;;;;;;;3.13;2.27;;;11.10;93.10;;;;;;2057113;28;20195;-64
2021/08/21 04:47:36;;;;;;;2.55;1.80;;;11.10;93.00;;;;;;2056447;28;20195;-67
2021/08/21 04:48:36;;;;;;;3.33;2.45;;;11.10;92.90;;;;;;2048736;28;20184;-65
2021/08/21 04:49:37;;;;;;;2.77;2.20;;;11.10;92.90;;;;;;2048253;28;20235;-65
2021/08/21 04:50:38;;;;;;;3.10;2.37;;;11.10;92.90;;;;;;2056457;28;20218;-64
2021/08/21 04:51:39;;;;;;;3.17;2.10;;;11.10;92.90;;;;;;2056939;28;20657;-65
2021/08/21 04:52:40;;;;;;;2.33;2.00;;;11.10;93.00;;;;;;2056618;28;20182;-66
2021/08/21 04:53:40;;;;;;;4.17;2.93;;;11.10;93.10;;;;;;2056118;28;20781;-66
2021/08/21 04:54:41;;;;;;;3.70;2.87;;;11.10;93.40;;;;;;2043878;28;20223;-65
2021/08/21 04:55:43;;;;;;;2.23;2.03;;;11.20;93.50;;;;;;2046465;28;20255;-65
2021/08/21 04:56:44;;;;;;;3.75;2.53;;;11.10;93.50;;;;;;2047698;28;20189;-65
2021/08/21 04:57:44;;;;;;;4.77;2.83;;;11.20;93.50;;;;;;2054939;28;20274;-64
2021/08/21 04:58:45;;;;;;;4.83;2.70;;;11.20;93.40;;;;;;2050302;28;20232;-64
2021/08/21 04:59:46;;;;;;;2.80;2.37;;;11.20;93.40;;;;;;2055644;28;20214;-66
2021/08/21 05:00:47;;;;;;;2.97;2.30;;;11.20;93.40;;;;;;2058524;28;20614;-65
2021/08/21 05:01:47;;;;;;;3.03;2.73;;;11.30;93.50;;;;;;2056770;28;20297;-66
2021/08/21 05:02:51;;;;;;;3.07;2.43;;;11.30;93.40;;;;;;2052492;28;20179;-65
2021/08/21 05:03:52;;;;;;;3.55;2.70;;;11.30;93.50;;;;;;2050556;28;20203;-66
2021/08/21 05:04:52;;;;;;;4.13;2.43;;;11.30;93.50;;;;;;2050630;28;20199;-66
2021/08/21 05:05:53;;;;;;;2.97;2.63;;;11.30;93.40;;;;;;2050486;28;20247;-63
2021/08/21 05:06:54;;;;;;;3.57;2.80;;;11.40;93.40;;;;;;2050580;28;20190;-65
2021/08/21 05:07:54;;;;;;;3.23;2.60;;;11.40;93.30;;;;;;2050573;28;20241;-66
2021/08/21 05:08:55;;;;;;;3.40;2.40;;;11.50;93.30;;;;;;2049822;28;20638;-64
2021/08/21 05:09:56;;;;;;;3.33;2.33;;;11.50;93.20;;;;;;2050452;28;20194;-65
2021/08/21 05:10:56;;;;;;;4.77;2.20;;;11.60;93.20;;;;;;2050601;28;20192;-66
2021/08/21 05:11:57;;;;;;;6.03;2.50;;;11.60;93.10;;;;;;2050490;28;20273;-66
2021/08/21 05:12:58;;;;;;;3.03;2.23;;;11.70;93.10;;;;;;2050523;28;20207;-65
2021/08/21 05:13:58;;;;;;;2.87;2.43;;;11.70;92.90;;;;;;2050509;28;20632;-67
2021/08/21 05:14:59;;;;;;;3.70;2.50;;;11.70;92.90;;;;;;2050383;29;20208;-65
2021/08/21 05:16:00;;;;;;;3.47;2.10;;;11.80;92.90;;;;;;2050434;28;20663;-65
2021/08/21 05:17:01;;;;;;;4.63;2.70;;;11.80;92.90;;;;;;2050508;28;20172;-65
2021/08/21 05:18:03;;;;;;;3.87;2.50;;;11.80;92.80;;;;;;2049779;29;20176;-65
2021/08/21 05:19:08;;;;;;;3.22;2.58;;;11.90;92.70;;;;;;2049016;28;20171;-66
2021/08/21 05:20:26;;;;;;;3.28;2.75;;;11.90;92.60;;;;;;2050303;28;20168;-65